sim
Sign-in with your pilot id or email,
or register
Callsign
Passwort

Schedule Details

Flight Number: EWG1915 (2)
Departure: Dusseldorf International Airport (EDDL) at 11:40
Arrival: Munich Airport (EDDM) at 12:50
Route: Eurowings Passenger Schedule. Enter filed route here before submitting Pirep.

Weather Information
Getting current METAR information for EDDL 190450Z 04004KT CAVOK 09/05 Q1019 NOSIG
Getting current METAR information for EDDM 190450Z 32001KT CAVOK 04/03 Q1020 NOSIG

Schedule Frequency

Route Map